sensor_id;sensor_type;location;lat;lon;timestamp;temperature;humidity
69084;SHT31;56185;48.526;9.044;2024-03-07T00:02:20;7.02;88.75
69084;SHT31;56185;48.526;9.044;2024-03-07T00:04:45;6.97;89.00
69084;SHT31;56185;48.526;9.044;2024-03-07T00:07:10;7.00;88.98
69084;SHT31;56185;48.526;9.044;2024-03-07T00:09:36;7.06;89.25
69084;SHT31;56185;48.526;9.044;2024-03-07T00:12:02;7.07;88.97
69084;SHT31;56185;48.526;9.044;2024-03-07T00:14:28;7.03;89.05
69084;SHT31;56185;48.526;9.044;2024-03-07T00:16:54;7.07;89.31
69084;SHT31;56185;48.526;9.044;2024-03-07T00:19:19;7.10;88.88
69084;SHT31;56185;48.526;9.044;2024-03-07T00:21:45;7.12;88.97
69084;SHT31;56185;48.526;9.044;2024-03-07T00:24:10;7.12;88.90
69084;SHT31;56185;48.526;9.044;2024-03-07T00:26:35;7.07;88.99
69084;SHT31;56185;48.526;9.044;2024-03-07T00:29:00;7.03;89.30
69084;SHT31;56185;48.526;9.044;2024-03-07T00:31:26;7.06;88.98
69084;SHT31;56185;48.526;9.044;2024-03-07T00:33:51;7.10;88.91
69084;SHT31;56185;48.526;9.044;2024-03-07T00:36:16;7.03;89.14
69084;SHT31;56185;48.526;9.044;2024-03-07T00:38:41;6.97;89.31
69084;SHT31;56185;48.526;9.044;2024-03-07T00:41:07;7.02;89.11
69084;SHT31;56185;48.526;9.044;2024-03-07T00:43:32;7.03;88.48
69084;SHT31;56185;48.526;9.044;2024-03-07T00:45:57;7.00;88.45
69084;SHT31;56185;48.526;9.044;2024-03-07T00:48:22;6.75;88.12
69084;SHT31;56185;48.526;9.044;2024-03-07T00:50:47;6.91;87.73
69084;SHT31;56185;48.526;9.044;2024-03-07T00:53:13;6.72;88.17
69084;SHT31;56185;48.526;9.044;2024-03-07T00:55:38;6.82;87.54
69084;SHT31;56185;48.526;9.044;2024-03-07T00:58:04;6.75;87.43
69084;SHT31;56185;48.526;9.044;2024-03-07T01:00:29;6.69;86.94
69084;SHT31;56185;48.526;9.044;2024-03-07T01:02:54;6.62;87.19
69084;SHT31;56185;48.526;9.044;2024-03-07T01:05:19;6.64;86.56
69084;SHT31;56185;48.526;9.044;2024-03-07T01:07:45;6.64;86.88
69084;SHT31;56185;48.526;9.044;2024-03-07T01:10:10;6.69;87.18
69084;SHT31;56185;48.526;9.044;2024-03-07T01:12:35;6.59;86.08
69084;SHT31;56185;48.526;9.044;2024-03-07T01:15:01;6.48;87.09
69084;SHT31;56185;48.526;9.044;2024-03-07T01:17:26;6.49;87.08
69084;SHT31;56185;48.526;9.044;2024-03-07T01:19:52;6.46;87.19
69084;SHT31;56185;48.526;9.044;2024-03-07T01:22:17;6.44;87.66
69084;SHT31;56185;48.526;9.044;2024-03-07T01:24:42;6.59;86.00
69084;SHT31;56185;48.526;9.044;2024-03-07T01:27:07;6.56;86.39
69084;SHT31;56185;48.526;9.044;2024-03-07T01:29:33;6.59;87.09
69084;SHT31;56185;48.526;9.044;2024-03-07T01:31:58;6.48;87.46
69084;SHT31;56185;48.526;9.044;2024-03-07T01:34:23;6.55;85.73
69084;SHT31;56185;48.526;9.044;2024-03-07T01:36:48;6.41;86.17
69084;SHT31;56185;48.526;9.044;2024-03-07T01:39:14;6.48;86.41
69084;SHT31;56185;48.526;9.044;2024-03-07T01:41:39;6.38;86.22
69084;SHT31;56185;48.526;9.044;2024-03-07T01:44:04;6.40;86.10
69084;SHT31;56185;48.526;9.044;2024-03-07T01:46:29;6.44;85.39
69084;SHT31;56185;48.526;9.044;2024-03-07T01:48:55;6.38;84.64
69084;SHT31;56185;48.526;9.044;2024-03-07T01:51:20;6.35;85.13
69084;SHT31;56185;48.526;9.044;2024-03-07T01:53:46;6.34;85.21
69084;SHT31;56185;48.526;9.044;2024-03-07T01:56:11;6.31;85.07
69084;SHT31;56185;48.526;9.044;2024-03-07T01:58:37;6.30;84.53
69084;SHT31;56185;48.526;9.044;2024-03-07T02:01:02;6.03;83.67
69084;SHT31;56185;48.526;9.044;2024-03-07T02:03:27;6.13;85.44
69084;SHT31;56185;48.526;9.044;2024-03-07T02:05:53;6.17;83.96
69084;SHT31;56185;48.526;9.044;2024-03-07T02:08:18;6.13;83.55
69084;SHT31;56185;48.526;9.044;2024-03-07T02:10:43;6.10;84.15
69084;SHT31;56185;48.526;9.044;2024-03-07T02:13:09;6.09;83.46
69084;SHT31;56185;48.526;9.044;2024-03-07T02:15:34;6.09;85.53
69084;SHT31;56185;48.526;9.044;2024-03-07T02:17:59;6.00;82.86
69084;SHT31;56185;48.526;9.044;2024-03-07T02:20:24;5.77;83.60
69084;SHT31;56185;48.526;9.044;2024-03-07T02:22:50;5.87;84.03
69084;SHT31;56185;48.526;9.044;2024-03-07T02:25:15;5.79;85.27
69084;SHT31;56185;48.526;9.044;2024-03-07T02:27:40;5.82;83.85
69084;SHT31;56185;48.526;9.044;2024-03-07T02:30:06;5.83;84.26
69084;SHT31;56185;48.526;9.044;2024-03-07T02:32:31;5.86;83.71
69084;SHT31;56185;48.526;9.044;2024-03-07T02:34:57;5.86;82.91
69084;SHT31;56185;48.526;9.044;2024-03-07T02:37:22;5.77;84.17
69084;SHT31;56185;48.526;9.044;2024-03-07T02:39:47;5.79;83.60
69084;SHT31;56185;48.526;9.044;2024-03-07T02:42:13;5.72;83.96
69084;SHT31;56185;48.526;9.044;2024-03-07T02:44:38;5.65;82.59
69084;SHT31;56185;48.526;9.044;2024-03-07T02:47:07;5.55;83.48
69084;SHT31;56185;48.526;9.044;2024-03-07T02:49:32;5.45;83.31
69084;SHT31;56185;48.526;9.044;2024-03-07T02:51:58;5.39;83.76
69084;SHT31;56185;48.526;9.044;2024-03-07T02:54:23;5.44;83.62
69084;SHT31;56185;48.526;9.044;2024-03-07T02:56:48;5.36;83.65
69084;SHT31;56185;48.526;9.044;2024-03-07T02:59:14;5.41;83.66
69084;SHT31;56185;48.526;9.044;2024-03-07T03:01:39;5.42;83.90
69084;SHT31;56185;48.526;9.044;2024-03-07T03:04:04;5.27;84.34
69084;SHT31;56185;48.526;9.044;2024-03-07T03:06:30;5.21;83.81
69084;SHT31;56185;48.526;9.044;2024-03-07T03:08:55;5.25;84.11
69084;SHT31;56185;48.526;9.044;2024-03-07T03:11:20;5.34;82.64
69084;SHT31;56185;48.526;9.044;2024-03-07T03:13:46;5.30;84.47
69084;SHT31;56185;48.526;9.044;2024-03-07T03:16:11;5.30;83.97
69084;SHT31;56185;48.526;9.044;2024-03-07T03:18:36;5.21;82.93
69084;SHT31;56185;48.526;9.044;2024-03-07T03:21:02;5.17;83.41
69084;SHT31;56185;48.526;9.044;2024-03-07T03:23:28;5.11;83.68
69084;SHT31;56185;48.526;9.044;2024-03-07T03:25:54;5.07;83.34
69084;SHT31;56185;48.526;9.044;2024-03-07T03:28:19;4.88;85.86
69084;SHT31;56185;48.526;9.044;2024-03-07T03:30:45;4.83;84.73
69084;SHT31;56185;48.526;9.044;2024-03-07T03:33:10;4.77;85.78
69084;SHT31;56185;48.526;9.044;2024-03-07T03:35:36;4.80;84.99
69084;SHT31;56185;48.526;9.044;2024-03-07T03:38:02;4.74;86.27
69084;SHT31;56185;48.526;9.044;2024-03-07T03:40:27;4.65;86.93
69084;SHT31;56185;48.526;9.044;2024-03-07T03:42:53;4.67;85.84
69084;SHT31;56185;48.526;9.044;2024-03-07T03:45:19;4.42;86.83
69084;SHT31;56185;48.526;9.044;2024-03-07T03:47:44;4.41;86.89
69084;SHT31;56185;48.526;9.044;2024-03-07T03:50:11;4.26;87.55
69084;SHT31;56185;48.526;9.044;2024-03-07T03:52:37;4.24;87.04
69084;SHT31;56185;48.526;9.044;2024-03-07T03:55:04;4.35;86.80
69084;SHT31;56185;48.526;9.044;2024-03-07T03:57:29;4.28;87.15
69084;SHT31;56185;48.526;9.044;2024-03-07T03:59:55;4.19;87.34
69084;SHT31;56185;48.526;9.044;2024-03-07T04:02:21;4.21;88.39
69084;SHT31;56185;48.526;9.044;2024-03-07T04:04:46;4.05;86.86
69084;SHT31;56185;48.526;9.044;2024-03-07T04:07:12;3.97;86.43
69084;SHT31;56185;48.526;9.044;2024-03-07T04:09:37;3.90;86.70
69084;SHT31;56185;48.526;9.044;2024-03-07T04:12:03;3.73;87.55
69084;SHT31;56185;48.526;9.044;2024-03-07T04:14:28;3.63;88.00
69084;SHT31;56185;48.526;9.044;2024-03-07T04:16:53;3.57;88.00
69084;SHT31;56185;48.526;9.044;2024-03-07T04:19:19;3.49;88.62
69084;SHT31;56185;48.526;9.044;2024-03-07T04:21:44;3.52;88.30
69084;SHT31;56185;48.526;9.044;2024-03-07T04:24:09;3.36;89.16
69084;SHT31;56185;48.526;9.044;2024-03-07T04:26:34;3.30;88.86
69084;SHT31;56185;48.526;9.044;2024-03-07T04:29:00;3.37;88.70
69084;SHT31;56185;48.526;9.044;2024-03-07T04:31:25;3.44;88.20
69084;SHT31;56185;48.526;9.044;2024-03-07T04:33:50;3.33;88.61
69084;SHT31;56185;48.526;9.044;2024-03-07T04:36:15;3.33;88.80
69084;SHT31;56185;48.526;9.044;2024-03-07T04:38:41;3.23;88.86
69084;SHT31;56185;48.526;9.044;2024-03-07T04:41:06;3.25;89.37
69084;SHT31;56185;48.526;9.044;2024-03-07T04:43:31;3.19;89.35
69084;SHT31;56185;48.526;9.044;2024-03-07T04:45:56;3.18;90.05
69084;SHT31;56185;48.526;9.044;2024-03-07T04:48:22;3.11;90.10
69084;SHT31;56185;48.526;9.044;2024-03-07T04:50:47;3.19;89.84
69084;SHT31;56185;48.526;9.044;2024-03-07T04:53:12;3.26;90.41
69084;SHT31;56185;48.526;9.044;2024-03-07T04:55:37;3.29;90.91
69084;SHT31;56185;48.526;9.044;2024-03-07T04:58:03;3.42;90.35
69084;SHT31;56185;48.526;9.044;2024-03-07T05:00:28;3.43;90.32
69084;SHT31;56185;48.526;9.044;2024-03-07T05:02:53;3.66;88.10
69084;SHT31;56185;48.526;9.044;2024-03-07T05:05:19;3.67;89.11
69084;SHT31;56185;48.526;9.044;2024-03-07T05:07:44;3.84;88.23
69084;SHT31;56185;48.526;9.044;2024-03-07T05:10:09;3.84;88.11
69084;SHT31;56185;48.526;9.044;2024-03-07T05:12:35;3.88;87.94
69084;SHT31;56185;48.526;9.044;2024-03-07T05:15:00;3.99;87.12
69084;SHT31;56185;48.526;9.044;2024-03-07T05:17:25;3.73;88.53
69084;SHT31;56185;48.526;9.044;2024-03-07T05:19:51;3.84;88.22
69084;SHT31;56185;48.526;9.044;2024-03-07T05:22:16;3.73;87.89
69084;SHT31;56185;48.526;9.044;2024-03-07T05:24:42;3.83;88.47
69084;SHT31;56185;48.526;9.044;2024-03-07T05:27:07;3.91;87.54
69084;SHT31;56185;48.526;9.044;2024-03-07T05:29:32;3.85;86.79
69084;SHT31;56185;48.526;9.044;2024-03-07T05:32:21;3.77;89.04
69084;SHT31;56185;48.526;9.044;2024-03-07T05:34:46;3.81;88.34
69084;SHT31;56185;48.526;9.044;2024-03-07T05:37:12;3.70;89.22
69084;SHT31;56185;48.526;9.044;2024-03-07T05:39:37;3.78;88.12
69084;SHT31;56185;48.526;9.044;2024-03-07T05:42:02;3.77;88.49
69084;SHT31;56185;48.526;9.044;2024-03-07T05:44:27;3.99;86.38
69084;SHT31;56185;48.526;9.044;2024-03-07T05:46:53;3.99;86.57
69084;SHT31;56185;48.526;9.044;2024-03-07T05:49:18;3.95;84.87
69084;SHT31;56185;48.526;9.044;2024-03-07T05:51:44;3.98;84.29
69084;SHT31;56185;48.526;9.044;2024-03-07T05:54:13;4.01;85.13
69084;SHT31;56185;48.526;9.044;2024-03-07T05:56:45;4.07;83.87
69084;SHT31;56185;48.526;9.044;2024-03-07T05:59:21;4.11;84.31
69084;SHT31;56185;48.526;9.044;2024-03-07T06:01:49;4.07;84.34
69084;SHT31;56185;48.526;9.044;2024-03-07T06:14:13;4.08;83.61
69084;SHT31;56185;48.526;9.044;2024-03-07T06:17:03;4.22;83.33
69084;SHT31;56185;48.526;9.044;2024-03-07T06:29:51;4.02;82.72
69084;SHT31;56185;48.526;9.044;2024-03-07T06:32:16;4.11;84.11
69084;SHT31;56185;48.526;9.044;2024-03-07T06:34:42;4.24;84.55
69084;SHT31;56185;48.526;9.044;2024-03-07T06:37:07;4.18;83.64
69084;SHT31;56185;48.526;9.044;2024-03-07T06:39:32;4.16;83.87
69084;SHT31;56185;48.526;9.044;2024-03-07T06:44:24;4.07;82.72
69084;SHT31;56185;48.526;9.044;2024-03-07T06:46:50;4.07;83.61
69084;SHT31;56185;48.526;9.044;2024-03-07T06:49:15;4.01;85.30
69084;SHT31;56185;48.526;9.044;2024-03-07T06:51:40;4.18;83.21
69084;SHT31;56185;48.526;9.044;2024-03-07T06:54:05;4.21;83.56
69084;SHT31;56185;48.526;9.044;2024-03-07T06:56:31;4.25;82.19
69084;SHT31;56185;48.526;9.044;2024-03-07T06:58:56;4.26;82.34
69084;SHT31;56185;48.526;9.044;2024-03-07T07:01:21;4.36;81.89
69084;SHT31;56185;48.526;9.044;2024-03-07T07:03:46;4.36;81.14
69084;SHT31;56185;48.526;9.044;2024-03-07T07:06:12;4.09;82.15
69084;SHT31;56185;48.526;9.044;2024-03-07T07:08:37;4.15;82.05
69084;SHT31;56185;48.526;9.044;2024-03-07T07:11:02;4.09;81.47
69084;SHT31;56185;48.526;9.044;2024-03-07T07:13:28;4.16;81.59
69084;SHT31;56185;48.526;9.044;2024-03-07T07:15:53;4.18;82.27
69084;SHT31;56185;48.526;9.044;2024-03-07T07:18:18;4.29;83.23
69084;SHT31;56185;48.526;9.044;2024-03-07T07:20:43;4.09;83.11
69084;SHT31;56185;48.526;9.044;2024-03-07T07:23:09;4.07;81.99
69084;SHT31;56185;48.526;9.044;2024-03-07T07:25:34;4.02;82.42
69084;SHT31;56185;48.526;9.044;2024-03-07T07:27:59;4.07;84.52
69084;SHT31;56185;48.526;9.044;2024-03-07T07:30:25;4.15;81.13
69084;SHT31;56185;48.526;9.044;2024-03-07T07:32:51;4.25;81.56
69084;SHT31;56185;48.526;9.044;2024-03-07T07:35:17;4.26;81.90
69084;SHT31;56185;48.526;9.044;2024-03-07T07:37:46;4.28;81.16
69084;SHT31;56185;48.526;9.044;2024-03-07T07:40:14;4.26;82.86
69084;SHT31;56185;48.526;9.044;2024-03-07T07:42:39;4.22;81.02
69084;SHT31;56185;48.526;9.044;2024-03-07T07:45:08;4.25;81.19
69084;SHT31;56185;48.526;9.044;2024-03-07T07:47:33;4.24;81.79
69084;SHT31;56185;48.526;9.044;2024-03-07T07:49:59;4.21;82.78
69084;SHT31;56185;48.526;9.044;2024-03-07T07:52:24;4.16;82.32
69084;SHT31;56185;48.526;9.044;2024-03-07T07:54:49;4.22;81.68
69084;SHT31;56185;48.526;9.044;2024-03-07T07:57:14;4.21;81.97
69084;SHT31;56185;48.526;9.044;2024-03-07T07:59:40;4.22;81.97
69084;SHT31;56185;48.526;9.044;2024-03-07T08:02:05;4.36;83.57
69084;SHT31;56185;48.526;9.044;2024-03-07T08:04:30;4.46;81.48
69084;SHT31;56185;48.526;9.044;2024-03-07T08:06:55;4.35;80.96
69084;SHT31;56185;48.526;9.044;2024-03-07T08:09:21;4.35;81.46
69084;SHT31;56185;48.526;9.044;2024-03-07T08:11:46;4.41;82.74
69084;SHT31;56185;48.526;9.044;2024-03-07T08:14:11;4.39;81.72
69084;SHT31;56185;48.526;9.044;2024-03-07T08:16:36;4.11;82.21
69084;SHT31;56185;48.526;9.044;2024-03-07T08:19:02;4.18;83.00
69084;SHT31;56185;48.526;9.044;2024-03-07T08:21:27;4.24;82.58
69084;SHT31;56185;48.526;9.044;2024-03-07T08:23:52;4.25;82.08
69084;SHT31;56185;48.526;9.044;2024-03-07T08:26:17;4.31;82.18
69084;SHT31;56185;48.526;9.044;2024-03-07T08:28:43;4.32;83.09
69084;SHT31;56185;48.526;9.044;2024-03-07T08:31:08;3.98;82.35
69084;SHT31;56185;48.526;9.044;2024-03-07T08:33:33;3.97;82.35
69084;SHT31;56185;48.526;9.044;2024-03-07T08:35:59;4.08;82.50
69084;SHT31;56185;48.526;9.044;2024-03-07T08:38:24;4.11;83.95
69084;SHT31;56185;48.526;9.044;2024-03-07T08:40:49;4.08;83.19
69084;SHT31;56185;48.526;9.044;2024-03-07T08:43:15;4.16;84.79
69084;SHT31;56185;48.526;9.044;2024-03-07T08:45:40;4.11;83.84
69084;SHT31;56185;48.526;9.044;2024-03-07T08:48:05;4.28;84.51
69084;SHT31;56185;48.526;9.044;2024-03-07T08:50:31;4.36;84.49
69084;SHT31;56185;48.526;9.044;2024-03-07T08:52:56;4.45;84.42
69084;SHT31;56185;48.526;9.044;2024-03-07T08:55:27;4.32;84.81
69084;SHT31;56185;48.526;9.044;2024-03-07T08:57:52;4.38;83.37
69084;SHT31;56185;48.526;9.044;2024-03-07T09:00:18;4.32;82.74
69084;SHT31;56185;48.526;9.044;2024-03-07T09:02:44;4.21;83.48
69084;SHT31;56185;48.526;9.044;2024-03-07T09:05:09;4.11;84.08
69084;SHT31;56185;48.526;9.044;2024-03-07T09:07:34;4.31;83.90
69084;SHT31;56185;48.526;9.044;2024-03-07T09:09:59;4.42;85.27
69084;SHT31;56185;48.526;9.044;2024-03-07T09:12:25;4.46;83.93
69084;SHT31;56185;48.526;9.044;2024-03-07T09:14:50;4.52;83.89
69084;SHT31;56185;48.526;9.044;2024-03-07T09:17:16;4.55;83.27
69084;SHT31;56185;48.526;9.044;2024-03-07T09:19:41;4.55;84.03
69084;SHT31;56185;48.526;9.044;2024-03-07T09:22:06;4.70;84.68
69084;SHT31;56185;48.526;9.044;2024-03-07T09:24:31;4.77;83.63
69084;SHT31;56185;48.526;9.044;2024-03-07T09:26:57;4.69;83.76
69084;SHT31;56185;48.526;9.044;2024-03-07T09:29:22;4.74;84.77
69084;SHT31;56185;48.526;9.044;2024-03-07T09:31:49;4.77;83.60
69084;SHT31;56185;48.526;9.044;2024-03-07T09:34:14;4.80;83.10
69084;SHT31;56185;48.526;9.044;2024-03-07T09:36:40;4.84;84.04
69084;SHT31;56185;48.526;9.044;2024-03-07T09:39:05;4.80;84.59
69084;SHT31;56185;48.526;9.044;2024-03-07T09:41:31;4.86;84.43
69084;SHT31;56185;48.526;9.044;2024-03-07T09:43:57;4.94;85.23
69084;SHT31;56185;48.526;9.044;2024-03-07T09:46:25;4.91;85.89
69084;SHT31;56185;48.526;9.044;2024-03-07T09:48:50;4.91;84.00
69084;SHT31;56185;48.526;9.044;2024-03-07T09:51:17;4.98;84.64
69084;SHT31;56185;48.526;9.044;2024-03-07T09:53:44;4.93;84.14
69084;SHT31;56185;48.526;9.044;2024-03-07T09:56:11;5.00;84.40
69084;SHT31;56185;48.526;9.044;2024-03-07T09:58:37;5.07;84.17
69084;SHT31;56185;48.526;9.044;2024-03-07T10:01:04;5.08;83.42
69084;SHT31;56185;48.526;9.044;2024-03-07T10:03:30;5.00;84.34
69084;SHT31;56185;48.526;9.044;2024-03-07T10:05:56;5.15;84.30
69084;SHT31;56185;48.526;9.044;2024-03-07T10:08:22;5.17;84.66
69084;SHT31;56185;48.526;9.044;2024-03-07T10:10:48;5.14;84.47
69084;SHT31;56185;48.526;9.044;2024-03-07T10:13:14;5.23;84.49
69084;SHT31;56185;48.526;9.044;2024-03-07T10:15:39;5.24;83.88
69084;SHT31;56185;48.526;9.044;2024-03-07T10:18:07;5.30;83.57
69084;SHT31;56185;48.526;9.044;2024-03-07T10:20:32;5.38;85.15
69084;SHT31;56185;48.526;9.044;2024-03-07T10:22:57;5.42;84.57
69084;SHT31;56185;48.526;9.044;2024-03-07T10:25:22;5.41;84.09
69084;SHT31;56185;48.526;9.044;2024-03-07T10:27:48;5.39;84.02
69084;SHT31;56185;48.526;9.044;2024-03-07T10:30:13;5.46;83.81
69084;SHT31;56185;48.526;9.044;2024-03-07T10:32:41;5.48;83.79
69084;SHT31;56185;48.526;9.044;2024-03-07T10:35:07;5.51;84.42
69084;SHT31;56185;48.526;9.044;2024-03-07T10:37:34;5.49;85.10
69084;SHT31;56185;48.526;9.044;2024-03-07T10:40:00;5.55;84.56
69084;SHT31;56185;48.526;9.044;2024-03-07T10:42:28;5.45;84.79
69084;SHT31;56185;48.526;9.044;2024-03-07T10:44:57;5.55;83.70
69084;SHT31;56185;48.526;9.044;2024-03-07T10:47:27;5.63;84.36
69084;SHT31;56185;48.526;9.044;2024-03-07T10:52:59;5.51;83.48
69084;SHT31;56185;48.526;9.044;2024-03-07T10:55:40;5.60;84.16
69084;SHT31;56185;48.526;9.044;2024-03-07T11:00:54;5.87;84.42
69084;SHT31;56185;48.526;9.044;2024-03-07T11:03:21;5.93;84.41
69084;SHT31;56185;48.526;9.044;2024-03-07T11:05:46;5.92;83.75
69084;SHT31;56185;48.526;9.044;2024-03-07T11:08:12;5.89;82.66
69084;SHT31;56185;48.526;9.044;2024-03-07T11:10:38;5.94;83.83
69084;SHT31;56185;48.526;9.044;2024-03-07T11:13:04;6.07;82.61
69084;SHT31;56185;48.526;9.044;2024-03-07T11:15:32;6.17;82.75
69084;SHT31;56185;48.526;9.044;2024-03-07T11:17:58;6.20;82.92
69084;SHT31;56185;48.526;9.044;2024-03-07T11:20:33;6.17;82.12
69084;SHT31;56185;48.526;9.044;2024-03-07T11:22:59;6.27;81.92
69084;SHT31;56185;48.526;9.044;2024-03-07T11:25:26;6.31;81.31
69084;SHT31;56185;48.526;9.044;2024-03-07T11:27:56;6.21;81.54
69084;SHT31;56185;48.526;9.044;2024-03-07T11:30:24;6.24;81.55
69084;SHT31;56185;48.526;9.044;2024-03-07T11:32:51;6.30;80.25
69084;SHT31;56185;48.526;9.044;2024-03-07T11:35:16;6.27;81.07
69084;SHT31;56185;48.526;9.044;2024-03-07T11:37:43;6.18;79.13
69084;SHT31;56185;48.526;9.044;2024-03-07T11:40:10;6.20;78.76
69084;SHT31;56185;48.526;9.044;2024-03-07T11:42:35;6.18;78.50
69084;SHT31;56185;48.526;9.044;2024-03-07T11:45:01;6.33;80.86
69084;SHT31;56185;48.526;9.044;2024-03-07T11:47:38;6.20;79.82
69084;SHT31;56185;48.526;9.044;2024-03-07T11:50:04;6.24;79.35
69084;SHT31;56185;48.526;9.044;2024-03-07T11:52:30;6.28;78.88
69084;SHT31;56185;48.526;9.044;2024-03-07T11:54:55;6.37;80.13
69084;SHT31;56185;48.526;9.044;2024-03-07T11:57:20;6.44;78.71
69084;SHT31;56185;48.526;9.044;2024-03-07T11:59:47;6.46;78.39
69084;SHT31;56185;48.526;9.044;2024-03-07T12:02:13;6.37;78.50
69084;SHT31;56185;48.526;9.044;2024-03-07T12:04:39;6.44;79.01
69084;SHT31;56185;48.526;9.044;2024-03-07T12:07:04;6.51;78.42
69084;SHT31;56185;48.526;9.044;2024-03-07T12:09:29;6.55;78.30
69084;SHT31;56185;48.526;9.044;2024-03-07T12:11:54;6.62;78.50
69084;SHT31;56185;48.526;9.044;2024-03-07T12:14:20;6.56;76.47
69084;SHT31;56185;48.526;9.044;2024-03-07T12:16:45;6.72;76.03
69084;SHT31;56185;48.526;9.044;2024-03-07T12:19:11;6.95;77.76
69084;SHT31;56185;48.526;9.044;2024-03-07T12:21:36;7.06;75.27
69084;SHT31;56185;48.526;9.044;2024-03-07T12:24:14;7.22;74.89
69084;SHT31;56185;48.526;9.044;2024-03-07T12:26:40;7.30;75.85
69084;SHT31;56185;48.526;9.044;2024-03-07T12:29:12;7.54;73.16
69084;SHT31;56185;48.526;9.044;2024-03-07T12:31:39;7.47;76.27
69084;SHT31;56185;48.526;9.044;2024-03-07T12:34:04;7.54;74.65
69084;SHT31;56185;48.526;9.044;2024-03-07T12:36:29;7.57;74.03
69084;SHT31;56185;48.526;9.044;2024-03-07T12:38:54;7.58;74.89
69084;SHT31;56185;48.526;9.044;2024-03-07T12:41:22;7.60;75.88
69084;SHT31;56185;48.526;9.044;2024-03-07T12:43:47;7.64;75.69
69084;SHT31;56185;48.526;9.044;2024-03-07T12:46:13;7.77;74.98
69084;SHT31;56185;48.526;9.044;2024-03-07T12:48:39;7.68;73.56
69084;SHT31;56185;48.526;9.044;2024-03-07T12:51:04;7.55;74.29
69084;SHT31;56185;48.526;9.044;2024-03-07T12:53:30;7.67;75.55
69084;SHT31;56185;48.526;9.044;2024-03-07T12:55:55;7.44;75.08
69084;SHT31;56185;48.526;9.044;2024-03-07T12:58:20;7.51;73.57
69084;SHT31;56185;48.526;9.044;2024-03-07T13:00:46;7.55;74.42
69084;SHT31;56185;48.526;9.044;2024-03-07T13:03:11;7.71;75.10
69084;SHT31;56185;48.526;9.044;2024-03-07T13:05:37;7.74;74.37
69084;SHT31;56185;48.526;9.044;2024-03-07T13:08:03;7.86;74.27
69084;SHT31;56185;48.526;9.044;2024-03-07T13:10:28;7.85;73.59
69084;SHT31;56185;48.526;9.044;2024-03-07T13:12:53;7.84;74.55
69084;SHT31;56185;48.526;9.044;2024-03-07T13:15:19;7.71;73.86
69084;SHT31;56185;48.526;9.044;2024-03-07T13:17:44;7.84;75.02
69084;SHT31;56185;48.526;9.044;2024-03-07T13:20:10;7.82;73.61
69084;SHT31;56185;48.526;9.044;2024-03-07T13:22:36;7.63;72.97
69084;SHT31;56185;48.526;9.044;2024-03-07T13:25:02;7.55;74.44
69084;SHT31;56185;48.526;9.044;2024-03-07T13:27:27;7.57;74.99
69084;SHT31;56185;48.526;9.044;2024-03-07T13:29:52;7.57;75.55
69084;SHT31;56185;48.526;9.044;2024-03-07T13:32:17;7.58;76.07
69084;SHT31;56185;48.526;9.044;2024-03-07T13:34:43;7.60;75.36
69084;SHT31;56185;48.526;9.044;2024-03-07T13:37:08;7.65;74.81
69084;SHT31;56185;48.526;9.044;2024-03-07T13:39:33;7.70;75.77
69084;SHT31;56185;48.526;9.044;2024-03-07T13:41:58;7.75;75.75
69084;SHT31;56185;48.526;9.044;2024-03-07T13:44:24;7.72;74.22
69084;SHT31;56185;48.526;9.044;2024-03-07T13:46:49;7.71;74.88
69084;SHT31;56185;48.526;9.044;2024-03-07T13:49:14;7.74;74.79
69084;SHT31;56185;48.526;9.044;2024-03-07T13:51:40;7.85;75.51
69084;SHT31;56185;48.526;9.044;2024-03-07T13:54:06;7.98;74.82
69084;SHT31;56185;48.526;9.044;2024-03-07T13:56:33;7.99;73.46
69084;SHT31;56185;48.526;9.044;2024-03-07T14:18:24;7.74;73.69
69084;SHT31;56185;48.526;9.044;2024-03-07T14:29:26;7.86;74.27
69084;SHT31;56185;48.526;9.044;2024-03-07T14:31:57;7.92;73.56
69084;SHT31;56185;48.526;9.044;2024-03-07T14:37:31;7.88;73.41
69084;SHT31;56185;48.526;9.044;2024-03-07T14:40:09;7.77;73.25
69084;SHT31;56185;48.526;9.044;2024-03-07T14:42:44;7.81;73.61
69084;SHT31;56185;48.526;9.044;2024-03-07T14:45:12;7.79;74.46
69084;SHT31;56185;48.526;9.044;2024-03-07T14:47:37;7.85;73.32
69084;SHT31;56185;48.526;9.044;2024-03-07T14:50:03;7.84;73.52
69084;SHT31;56185;48.526;9.044;2024-03-07T14:52:28;7.91;73.69
69084;SHT31;56185;48.526;9.044;2024-03-07T14:54:54;7.71;72.95
69084;SHT31;56185;48.526;9.044;2024-03-07T14:57:19;7.79;74.06
69084;SHT31;56185;48.526;9.044;2024-03-07T14:59:44;7.77;72.31
69084;SHT31;56185;48.526;9.044;2024-03-07T15:02:11;7.95;70.85
69084;SHT31;56185;48.526;9.044;2024-03-07T15:04:37;7.92;71.92
69084;SHT31;56185;48.526;9.044;2024-03-07T15:07:03;7.91;70.79
69084;SHT31;56185;48.526;9.044;2024-03-07T15:09:28;7.93;71.30
69084;SHT31;56185;48.526;9.044;2024-03-07T15:11:53;8.01;70.39
69084;SHT31;56185;48.526;9.044;2024-03-07T15:14:19;7.99;70.04
69084;SHT31;56185;48.526;9.044;2024-03-07T15:16:44;7.88;69.08
69084;SHT31;56185;48.526;9.044;2024-03-07T15:19:09;7.86;69.09
69084;SHT31;56185;48.526;9.044;2024-03-07T15:21:38;8.02;70.44
69084;SHT31;56185;48.526;9.044;2024-03-07T15:24:04;8.06;69.74
69084;SHT31;56185;48.526;9.044;2024-03-07T15:26:29;8.10;69.75
69084;SHT31;56185;48.526;9.044;2024-03-07T15:28:55;8.15;70.66
69084;SHT31;56185;48.526;9.044;2024-03-07T15:31:20;8.13;69.72
69084;SHT31;56185;48.526;9.044;2024-03-07T15:33:46;8.12;70.64
69084;SHT31;56185;48.526;9.044;2024-03-07T15:36:13;8.15;69.14
69084;SHT31;56185;48.526;9.044;2024-03-07T15:38:38;7.92;69.72
69084;SHT31;56185;48.526;9.044;2024-03-07T15:41:04;8.10;69.34
69084;SHT31;56185;48.526;9.044;2024-03-07T15:43:30;8.03;70.69
69084;SHT31;56185;48.526;9.044;2024-03-07T15:45:55;7.95;70.25
69084;SHT31;56185;48.526;9.044;2024-03-07T15:48:20;7.88;70.81
69084;SHT31;56185;48.526;9.044;2024-03-07T15:50:46;7.82;70.40
69084;SHT31;56185;48.526;9.044;2024-03-07T15:53:11;7.77;70.26
69084;SHT31;56185;48.526;9.044;2024-03-07T15:55:36;7.61;69.03
69084;SHT31;56185;48.526;9.044;2024-03-07T15:58:01;7.68;68.78
69084;SHT31;56185;48.526;9.044;2024-03-07T16:00:27;7.54;69.34
69084;SHT31;56185;48.526;9.044;2024-03-07T16:02:54;7.60;68.13
69084;SHT31;56185;48.526;9.044;2024-03-07T16:05:20;7.64;69.87
69084;SHT31;56185;48.526;9.044;2024-03-07T16:07:45;7.68;68.95
69084;SHT31;56185;48.526;9.044;2024-03-07T16:10:20;7.64;68.64
69084;SHT31;56185;48.526;9.044;2024-03-07T16:12:46;7.55;68.87
69084;SHT31;56185;48.526;9.044;2024-03-07T16:15:12;7.58;67.82
69084;SHT31;56185;48.526;9.044;2024-03-07T16:17:38;7.48;67.69
69084;SHT31;56185;48.526;9.044;2024-03-07T16:20:04;7.53;68.71
69084;SHT31;56185;48.526;9.044;2024-03-07T16:22:29;7.54;67.40
69084;SHT31;56185;48.526;9.044;2024-03-07T16:24:55;7.57;68.50
69084;SHT31;56185;48.526;9.044;2024-03-07T16:27:20;7.61;69.59
69084;SHT31;56185;48.526;9.044;2024-03-07T16:29:45;7.58;68.63
69084;SHT31;56185;48.526;9.044;2024-03-07T16:32:10;7.51;69.07
69084;SHT31;56185;48.526;9.044;2024-03-07T16:34:36;7.47;67.31
69084;SHT31;56185;48.526;9.044;2024-03-07T16:37:02;7.50;67.86